sensor_id;sensor_type;location;lat;lon;timestamp;temperature;humidity
52555;DHT22;38455;52.710;6.502;2024-02-26T00:01:52;4.10;99.90
52555;DHT22;38455;52.710;6.502;2024-02-26T00:04:18;4.00;99.90
52555;DHT22;38455;52.710;6.502;2024-02-26T00:06:43;4.00;99.90
52555;DHT22;38455;52.710;6.502;2024-02-26T00:09:09;4.00;99.90
52555;DHT22;38455;52.710;6.502;2024-02-26T00:11:37;4.00;99.90
52555;DHT22;38455;52.710;6.502;2024-02-26T00:14:03;4.00;99.90
52555;DHT22;38455;52.710;6.502;2024-02-26T00:16:29;4.00;99.90
52555;DHT22;38455;52.710;6.502;2024-02-26T00:18:55;4.00;99.90
52555;DHT22;38455;52.710;6.502;2024-02-26T00:21:21;4.00;99.90
52555;DHT22;38455;52.710;6.502;2024-02-26T00:23:47;4.00;99.90
52555;DHT22;38455;52.710;6.502;2024-02-26T00:26:12;4.00;99.90
52555;DHT22;38455;52.710;6.502;2024-02-26T00:28:38;3.90;99.90
52555;DHT22;38455;52.710;6.502;2024-02-26T00:31:04;4.00;99.90
52555;DHT22;38455;52.710;6.502;2024-02-26T00:33:30;4.00;99.90
52555;DHT22;38455;52.710;6.502;2024-02-26T00:35:56;3.90;99.90
52555;DHT22;38455;52.710;6.502;2024-02-26T00:38:21;3.90;99.90
52555;DHT22;38455;52.710;6.502;2024-02-26T00:40:47;3.90;99.90
52555;DHT22;38455;52.710;6.502;2024-02-26T00:43:12;4.00;99.90
52555;DHT22;38455;52.710;6.502;2024-02-26T00:45:38;3.90;99.90
52555;DHT22;38455;52.710;6.502;2024-02-26T00:48:04;3.90;99.90
52555;DHT22;38455;52.710;6.502;2024-02-26T00:50:34;4.00;99.90
52555;DHT22;38455;52.710;6.502;2024-02-26T00:53:01;3.90;99.90
52555;DHT22;38455;52.710;6.502;2024-02-26T00:55:26;4.00;99.90
52555;DHT22;38455;52.710;6.502;2024-02-26T00:57:52;3.90;99.90
52555;DHT22;38455;52.710;6.502;2024-02-26T01:00:18;3.90;99.90
52555;DHT22;38455;52.710;6.502;2024-02-26T01:02:43;3.90;99.90
52555;DHT22;38455;52.710;6.502;2024-02-26T01:05:12;3.90;99.90
52555;DHT22;38455;52.710;6.502;2024-02-26T01:07:38;3.90;99.90
52555;DHT22;38455;52.710;6.502;2024-02-26T01:10:05;3.90;99.90
52555;DHT22;38455;52.710;6.502;2024-02-26T01:12:35;4.00;99.90
52555;DHT22;38455;52.710;6.502;2024-02-26T01:15:02;4.00;99.90
52555;DHT22;38455;52.710;6.502;2024-02-26T01:17:31;4.00;99.90
52555;DHT22;38455;52.710;6.502;2024-02-26T01:19:56;4.00;99.90
52555;DHT22;38455;52.710;6.502;2024-02-26T01:22:22;4.00;99.90
52555;DHT22;38455;52.710;6.502;2024-02-26T01:24:48;4.00;99.90
52555;DHT22;38455;52.710;6.502;2024-02-26T01:27:14;4.00;99.90
52555;DHT22;38455;52.710;6.502;2024-02-26T01:29:41;4.00;99.90
52555;DHT22;38455;52.710;6.502;2024-02-26T01:32:07;4.00;99.90
52555;DHT22;38455;52.710;6.502;2024-02-26T01:34:32;4.00;99.90
52555;DHT22;38455;52.710;6.502;2024-02-26T01:36:58;4.00;99.90
52555;DHT22;38455;52.710;6.502;2024-02-26T01:39:24;4.00;99.90
52555;DHT22;38455;52.710;6.502;2024-02-26T01:41:49;4.00;99.90
52555;DHT22;38455;52.710;6.502;2024-02-26T01:44:15;4.00;99.90
52555;DHT22;38455;52.710;6.502;2024-02-26T01:46:41;4.00;99.90
52555;DHT22;38455;52.710;6.502;2024-02-26T01:49:08;4.00;99.90
52555;DHT22;38455;52.710;6.502;2024-02-26T01:51:38;4.00;99.90
52555;DHT22;38455;52.710;6.502;2024-02-26T01:54:06;4.00;99.90
52555;DHT22;38455;52.710;6.502;2024-02-26T01:56:34;4.00;99.90
52555;DHT22;38455;52.710;6.502;2024-02-26T01:59:02;4.00;99.90
52555;DHT22;38455;52.710;6.502;2024-02-26T02:01:29;3.90;99.90
52555;DHT22;38455;52.710;6.502;2024-02-26T02:03:58;3.90;99.90
52555;DHT22;38455;52.710;6.502;2024-02-26T02:06:24;3.90;99.90
52555;DHT22;38455;52.710;6.502;2024-02-26T02:08:50;3.90;99.90
52555;DHT22;38455;52.710;6.502;2024-02-26T02:11:16;3.90;99.90
52555;DHT22;38455;52.710;6.502;2024-02-26T02:13:42;3.90;99.90
52555;DHT22;38455;52.710;6.502;2024-02-26T02:16:08;3.90;99.90
52555;DHT22;38455;52.710;6.502;2024-02-26T02:18:34;3.90;99.90
52555;DHT22;38455;52.710;6.502;2024-02-26T02:21:03;3.90;99.90
52555;DHT22;38455;52.710;6.502;2024-02-26T02:23:29;3.90;99.90
52555;DHT22;38455;52.710;6.502;2024-02-26T02:25:56;3.90;99.90
52555;DHT22;38455;52.710;6.502;2024-02-26T02:28:23;3.90;99.90
52555;DHT22;38455;52.710;6.502;2024-02-26T02:30:50;3.90;99.90
52555;DHT22;38455;52.710;6.502;2024-02-26T02:33:17;3.80;99.90
52555;DHT22;38455;52.710;6.502;2024-02-26T02:35:43;3.90;99.90
52555;DHT22;38455;52.710;6.502;2024-02-26T02:38:09;3.80;99.90
52555;DHT22;38455;52.710;6.502;2024-02-26T02:40:34;3.90;99.90
52555;DHT22;38455;52.710;6.502;2024-02-26T02:43:03;3.90;99.90
52555;DHT22;38455;52.710;6.502;2024-02-26T02:45:30;3.90;99.90
52555;DHT22;38455;52.710;6.502;2024-02-26T02:47:55;3.90;99.90
52555;DHT22;38455;52.710;6.502;2024-02-26T02:50:21;3.90;99.90
52555;DHT22;38455;52.710;6.502;2024-02-26T02:52:47;3.90;99.90
52555;DHT22;38455;52.710;6.502;2024-02-26T02:55:13;3.90;99.90
52555;DHT22;38455;52.710;6.502;2024-02-26T02:57:39;3.90;99.90
52555;DHT22;38455;52.710;6.502;2024-02-26T03:00:10;3.90;99.90
52555;DHT22;38455;52.710;6.502;2024-02-26T03:02:36;3.90;99.90
52555;DHT22;38455;52.710;6.502;2024-02-26T03:05:03;3.90;99.90
52555;DHT22;38455;52.710;6.502;2024-02-26T03:07:28;3.90;99.90
52555;DHT22;38455;52.710;6.502;2024-02-26T03:09:54;3.90;99.90
52555;DHT22;38455;52.710;6.502;2024-02-26T03:12:20;3.90;99.90
52555;DHT22;38455;52.710;6.502;2024-02-26T03:14:45;3.90;99.90
52555;DHT22;38455;52.710;6.502;2024-02-26T03:17:11;3.90;99.90
52555;DHT22;38455;52.710;6.502;2024-02-26T03:19:37;3.90;99.90
52555;DHT22;38455;52.710;6.502;2024-02-26T03:22:03;3.90;99.90
52555;DHT22;38455;52.710;6.502;2024-02-26T03:24:28;3.90;99.90
52555;DHT22;38455;52.710;6.502;2024-02-26T03:26:54;3.90;99.90
52555;DHT22;38455;52.710;6.502;2024-02-26T03:29:20;3.90;99.90
52555;DHT22;38455;52.710;6.502;2024-02-26T03:31:45;4.00;99.90
52555;DHT22;38455;52.710;6.502;2024-02-26T03:34:11;3.90;99.90
52555;DHT22;38455;52.710;6.502;2024-02-26T03:36:38;3.90;99.90
52555;DHT22;38455;52.710;6.502;2024-02-26T03:39:04;3.90;99.90
52555;DHT22;38455;52.710;6.502;2024-02-26T03:41:35;3.90;99.90
52555;DHT22;38455;52.710;6.502;2024-02-26T03:44:02;3.90;99.90
52555;DHT22;38455;52.710;6.502;2024-02-26T03:46:27;3.90;99.90
52555;DHT22;38455;52.710;6.502;2024-02-26T03:48:53;3.90;99.90
52555;DHT22;38455;52.710;6.502;2024-02-26T03:51:19;3.90;99.90
52555;DHT22;38455;52.710;6.502;2024-02-26T03:53:45;3.90;99.90
52555;DHT22;38455;52.710;6.502;2024-02-26T03:56:13;3.90;99.90
52555;DHT22;38455;52.710;6.502;2024-02-26T03:58:39;3.90;99.90
52555;DHT22;38455;52.710;6.502;2024-02-26T04:01:07;3.90;99.90
52555;DHT22;38455;52.710;6.502;2024-02-26T04:03:33;3.90;99.90
52555;DHT22;38455;52.710;6.502;2024-02-26T04:06:00;3.90;99.90
52555;DHT22;38455;52.710;6.502;2024-02-26T04:08:25;3.90;99.90
52555;DHT22;38455;52.710;6.502;2024-02-26T04:10:51;3.90;99.90
52555;DHT22;38455;52.710;6.502;2024-02-26T04:13:17;3.90;99.90
52555;DHT22;38455;52.710;6.502;2024-02-26T04:15:43;3.90;99.90
52555;DHT22;38455;52.710;6.502;2024-02-26T04:18:09;3.90;99.90
52555;DHT22;38455;52.710;6.502;2024-02-26T04:20:35;3.90;99.90
52555;DHT22;38455;52.710;6.502;2024-02-26T04:23:00;3.90;99.90
52555;DHT22;38455;52.710;6.502;2024-02-26T04:25:26;4.00;99.90
52555;DHT22;38455;52.710;6.502;2024-02-26T04:27:52;3.90;99.90
52555;DHT22;38455;52.710;6.502;2024-02-26T04:30:17;3.90;99.90
52555;DHT22;38455;52.710;6.502;2024-02-26T04:32:43;3.90;99.90
52555;DHT22;38455;52.710;6.502;2024-02-26T04:35:09;3.90;99.90
52555;DHT22;38455;52.710;6.502;2024-02-26T04:37:35;4.00;99.90
52555;DHT22;38455;52.710;6.502;2024-02-26T04:40:01;4.00;99.90
52555;DHT22;38455;52.710;6.502;2024-02-26T04:42:27;4.00;99.90
52555;DHT22;38455;52.710;6.502;2024-02-26T04:44:54;4.00;99.90
52555;DHT22;38455;52.710;6.502;2024-02-26T04:47:20;4.00;99.90
52555;DHT22;38455;52.710;6.502;2024-02-26T04:49:50;4.00;99.90
52555;DHT22;38455;52.710;6.502;2024-02-26T04:52:16;4.10;99.90
52555;DHT22;38455;52.710;6.502;2024-02-26T04:54:42;4.10;99.90
52555;DHT22;38455;52.710;6.502;2024-02-26T04:57:07;4.10;99.90
52555;DHT22;38455;52.710;6.502;2024-02-26T04:59:33;4.10;99.90
52555;DHT22;38455;52.710;6.502;2024-02-26T05:01:58;4.10;99.90
52555;DHT22;38455;52.710;6.502;2024-02-26T05:04:24;4.10;99.90
52555;DHT22;38455;52.710;6.502;2024-02-26T05:06:50;4.10;99.90
52555;DHT22;38455;52.710;6.502;2024-02-26T05:09:16;4.10;99.90
52555;DHT22;38455;52.710;6.502;2024-02-26T05:11:42;4.20;99.90
52555;DHT22;38455;52.710;6.502;2024-02-26T05:14:08;4.10;99.90
52555;DHT22;38455;52.710;6.502;2024-02-26T05:16:34;4.20;99.90
52555;DHT22;38455;52.710;6.502;2024-02-26T05:18:59;4.30;99.90
52555;DHT22;38455;52.710;6.502;2024-02-26T05:21:25;4.30;99.90
52555;DHT22;38455;52.710;6.502;2024-02-26T05:23:51;4.30;99.90
52555;DHT22;38455;52.710;6.502;2024-02-26T05:26:20;4.30;99.90
52555;DHT22;38455;52.710;6.502;2024-02-26T05:28:47;4.30;99.90
52555;DHT22;38455;52.710;6.502;2024-02-26T05:31:13;4.30;99.90
52555;DHT22;38455;52.710;6.502;2024-02-26T05:33:39;4.30;99.90
52555;DHT22;38455;52.710;6.502;2024-02-26T05:36:05;4.30;99.90
52555;DHT22;38455;52.710;6.502;2024-02-26T05:38:31;4.40;99.90
52555;DHT22;38455;52.710;6.502;2024-02-26T05:41:00;4.40;99.90
52555;DHT22;38455;52.710;6.502;2024-02-26T05:43:26;4.40;99.90
52555;DHT22;38455;52.710;6.502;2024-02-26T05:45:52;4.40;99.90
52555;DHT22;38455;52.710;6.502;2024-02-26T05:48:18;4.40;99.90
52555;DHT22;38455;52.710;6.502;2024-02-26T05:50:45;4.40;99.90
52555;DHT22;38455;52.710;6.502;2024-02-26T05:53:11;4.40;99.90
52555;DHT22;38455;52.710;6.502;2024-02-26T05:55:37;4.30;99.90
52555;DHT22;38455;52.710;6.502;2024-02-26T05:58:03;4.30;99.90
52555;DHT22;38455;52.710;6.502;2024-02-26T06:00:28;4.30;99.90
52555;DHT22;38455;52.710;6.502;2024-02-26T06:02:54;4.30;99.90
52555;DHT22;38455;52.710;6.502;2024-02-26T06:05:20;4.30;99.90
52555;DHT22;38455;52.710;6.502;2024-02-26T06:07:45;4.20;99.90
52555;DHT22;38455;52.710;6.502;2024-02-26T06:10:11;4.30;99.90
52555;DHT22;38455;52.710;6.502;2024-02-26T06:12:39;4.20;99.90
52555;DHT22;38455;52.710;6.502;2024-02-26T06:15:06;4.20;99.90
52555;DHT22;38455;52.710;6.502;2024-02-26T06:17:32;4.20;99.90
52555;DHT22;38455;52.710;6.502;2024-02-26T06:19:57;4.20;99.90
52555;DHT22;38455;52.710;6.502;2024-02-26T06:22:25;4.20;99.90
52555;DHT22;38455;52.710;6.502;2024-02-26T06:24:50;4.20;99.90
52555;DHT22;38455;52.710;6.502;2024-02-26T06:27:16;4.20;99.90
52555;DHT22;38455;52.710;6.502;2024-02-26T06:29:42;4.20;99.90
52555;DHT22;38455;52.710;6.502;2024-02-26T06:32:07;4.20;99.90
52555;DHT22;38455;52.710;6.502;2024-02-26T06:34:33;4.20;99.90
52555;DHT22;38455;52.710;6.502;2024-02-26T06:36:58;4.20;99.90
52555;DHT22;38455;52.710;6.502;2024-02-26T06:39:24;4.20;99.90
52555;DHT22;38455;52.710;6.502;2024-02-26T06:41:50;4.20;99.90
52555;DHT22;38455;52.710;6.502;2024-02-26T06:44:15;4.20;99.90
52555;DHT22;38455;52.710;6.502;2024-02-26T06:46:41;4.20;99.90
52555;DHT22;38455;52.710;6.502;2024-02-26T06:49:07;4.30;99.90
52555;DHT22;38455;52.710;6.502;2024-02-26T06:51:32;4.30;99.90
52555;DHT22;38455;52.710;6.502;2024-02-26T06:53:58;4.30;99.90
52555;DHT22;38455;52.710;6.502;2024-02-26T06:56:23;4.30;99.90
52555;DHT22;38455;52.710;6.502;2024-02-26T06:58:49;4.30;99.90
52555;DHT22;38455;52.710;6.502;2024-02-26T07:01:15;4.30;99.90
52555;DHT22;38455;52.710;6.502;2024-02-26T07:03:41;4.30;99.90
52555;DHT22;38455;52.710;6.502;2024-02-26T07:06:06;4.30;99.90
52555;DHT22;38455;52.710;6.502;2024-02-26T07:08:34;4.30;99.90
52555;DHT22;38455;52.710;6.502;2024-02-26T07:10:59;4.30;99.90
52555;DHT22;38455;52.710;6.502;2024-02-26T07:13:25;4.30;99.90
52555;DHT22;38455;52.710;6.502;2024-02-26T07:15:50;4.30;99.90
52555;DHT22;38455;52.710;6.502;2024-02-26T07:18:16;4.30;99.90
52555;DHT22;38455;52.710;6.502;2024-02-26T07:20:42;4.40;99.90
52555;DHT22;38455;52.710;6.502;2024-02-26T07:23:07;4.40;99.90
52555;DHT22;38455;52.710;6.502;2024-02-26T07:25:33;4.40;99.90
52555;DHT22;38455;52.710;6.502;2024-02-26T07:27:59;4.30;99.90
52555;DHT22;38455;52.710;6.502;2024-02-26T07:30:24;4.40;99.90
52555;DHT22;38455;52.710;6.502;2024-02-26T07:32:50;4.40;99.90
52555;DHT22;38455;52.710;6.502;2024-02-26T07:35:16;4.40;99.90
52555;DHT22;38455;52.710;6.502;2024-02-26T07:37:43;4.40;99.90
52555;DHT22;38455;52.710;6.502;2024-02-26T07:40:09;4.40;99.90
52555;DHT22;38455;52.710;6.502;2024-02-26T07:42:35;4.40;99.90
52555;DHT22;38455;52.710;6.502;2024-02-26T07:45:01;4.40;99.90
52555;DHT22;38455;52.710;6.502;2024-02-26T07:47:27;4.40;99.90
52555;DHT22;38455;52.710;6.502;2024-02-26T07:49:53;4.40;99.90
52555;DHT22;38455;52.710;6.502;2024-02-26T07:52:18;4.50;99.90
52555;DHT22;38455;52.710;6.502;2024-02-26T07:54:44;4.50;99.90
52555;DHT22;38455;52.710;6.502;2024-02-26T07:57:09;4.50;99.90
52555;DHT22;38455;52.710;6.502;2024-02-26T07:59:35;4.50;99.90
52555;DHT22;38455;52.710;6.502;2024-02-26T08:02:01;4.50;99.90
52555;DHT22;38455;52.710;6.502;2024-02-26T08:04:29;4.50;99.90
52555;DHT22;38455;52.710;6.502;2024-02-26T08:06:54;4.50;99.90
52555;DHT22;38455;52.710;6.502;2024-02-26T08:09:20;4.60;99.90
52555;DHT22;38455;52.710;6.502;2024-02-26T08:11:46;4.60;99.90
52555;DHT22;38455;52.710;6.502;2024-02-26T08:14:11;4.60;99.90
52555;DHT22;38455;52.710;6.502;2024-02-26T08:16:37;4.60;99.90
52555;DHT22;38455;52.710;6.502;2024-02-26T08:19:02;4.60;99.90
52555;DHT22;38455;52.710;6.502;2024-02-26T08:21:28;4.70;99.90
52555;DHT22;38455;52.710;6.502;2024-02-26T08:23:54;4.70;99.90
52555;DHT22;38455;52.710;6.502;2024-02-26T08:26:20;4.70;99.90
52555;DHT22;38455;52.710;6.502;2024-02-26T08:28:47;4.70;99.90
52555;DHT22;38455;52.710;6.502;2024-02-26T08:31:14;4.80;99.90
52555;DHT22;38455;52.710;6.502;2024-02-26T08:33:40;4.80;99.90
52555;DHT22;38455;52.710;6.502;2024-02-26T08:36:06;4.80;99.90
52555;DHT22;38455;52.710;6.502;2024-02-26T08:38:32;4.80;99.90
52555;DHT22;38455;52.710;6.502;2024-02-26T08:41:00;4.90;99.90
52555;DHT22;38455;52.710;6.502;2024-02-26T08:43:26;4.90;99.90
52555;DHT22;38455;52.710;6.502;2024-02-26T08:45:52;4.90;99.90
52555;DHT22;38455;52.710;6.502;2024-02-26T08:48:18;4.90;99.90
52555;DHT22;38455;52.710;6.502;2024-02-26T08:50:44;5.00;99.90
52555;DHT22;38455;52.710;6.502;2024-02-26T08:53:09;5.00;99.90
52555;DHT22;38455;52.710;6.502;2024-02-26T08:55:35;5.00;99.90
52555;DHT22;38455;52.710;6.502;2024-02-26T08:58:00;5.00;99.90
52555;DHT22;38455;52.710;6.502;2024-02-26T09:00:26;5.10;99.90
52555;DHT22;38455;52.710;6.502;2024-02-26T09:02:52;5.10;99.90
52555;DHT22;38455;52.710;6.502;2024-02-26T09:05:17;5.10;99.90
52555;DHT22;38455;52.710;6.502;2024-02-26T09:07:44;5.10;99.90
52555;DHT22;38455;52.710;6.502;2024-02-26T09:10:09;5.10;99.90
52555;DHT22;38455;52.710;6.502;2024-02-26T09:12:36;5.10;99.90
52555;DHT22;38455;52.710;6.502;2024-02-26T09:15:02;5.10;99.90
52555;DHT22;38455;52.710;6.502;2024-02-26T09:17:28;5.20;99.90
52555;DHT22;38455;52.710;6.502;2024-02-26T09:19:54;5.20;99.90
52555;DHT22;38455;52.710;6.502;2024-02-26T09:22:20;5.20;99.90
52555;DHT22;38455;52.710;6.502;2024-02-26T09:24:45;5.30;99.90
52555;DHT22;38455;52.710;6.502;2024-02-26T09:27:11;5.30;99.90
52555;DHT22;38455;52.710;6.502;2024-02-26T09:29:37;5.30;99.90
52555;DHT22;38455;52.710;6.502;2024-02-26T09:32:03;5.30;99.90
52555;DHT22;38455;52.710;6.502;2024-02-26T09:34:29;5.30;99.90
52555;DHT22;38455;52.710;6.502;2024-02-26T09:36:54;5.30;99.90
52555;DHT22;38455;52.710;6.502;2024-02-26T09:39:20;5.30;99.90
52555;DHT22;38455;52.710;6.502;2024-02-26T09:41:48;5.30;99.90
52555;DHT22;38455;52.710;6.502;2024-02-26T09:44:20;5.40;99.90
52555;DHT22;38455;52.710;6.502;2024-02-26T09:46:48;5.40;99.90
52555;DHT22;38455;52.710;6.502;2024-02-26T09:49:15;5.40;99.90
52555;DHT22;38455;52.710;6.502;2024-02-26T09:51:42;5.40;99.90
52555;DHT22;38455;52.710;6.502;2024-02-26T09:54:09;5.40;99.90
52555;DHT22;38455;52.710;6.502;2024-02-26T09:56:38;5.50;99.90
52555;DHT22;38455;52.710;6.502;2024-02-26T09:59:06;5.50;99.90
52555;DHT22;38455;52.710;6.502;2024-02-26T10:01:33;5.50;99.90
52555;DHT22;38455;52.710;6.502;2024-02-26T10:04:00;5.50;99.90
52555;DHT22;38455;52.710;6.502;2024-02-26T10:06:29;5.60;99.90
52555;DHT22;38455;52.710;6.502;2024-02-26T10:08:55;5.60;99.90
52555;DHT22;38455;52.710;6.502;2024-02-26T10:11:22;5.70;99.90
52555;DHT22;38455;52.710;6.502;2024-02-26T10:13:49;5.70;99.90
52555;DHT22;38455;52.710;6.502;2024-02-26T10:16:16;5.70;99.90
52555;DHT22;38455;52.710;6.502;2024-02-26T10:18:51;5.80;99.90
52555;DHT22;38455;52.710;6.502;2024-02-26T10:21:17;5.80;99.90
52555;DHT22;38455;52.710;6.502;2024-02-26T10:23:44;5.80;99.90
52555;DHT22;38455;52.710;6.502;2024-02-26T10:26:13;5.80;99.90
52555;DHT22;38455;52.710;6.502;2024-02-26T10:28:41;5.90;99.90
52555;DHT22;38455;52.710;6.502;2024-02-26T10:31:07;6.00;99.90
52555;DHT22;38455;52.710;6.502;2024-02-26T10:33:34;6.00;99.90
52555;DHT22;38455;52.710;6.502;2024-02-26T10:36:04;6.00;99.90
52555;DHT22;38455;52.710;6.502;2024-02-26T10:38:32;6.10;99.90
52555;DHT22;38455;52.710;6.502;2024-02-26T10:40:58;6.10;99.90
52555;DHT22;38455;52.710;6.502;2024-02-26T10:43:25;6.20;99.90
52555;DHT22;38455;52.710;6.502;2024-02-26T10:45:51;6.20;99.90
52555;DHT22;38455;52.710;6.502;2024-02-26T10:48:17;6.30;99.90
52555;DHT22;38455;52.710;6.502;2024-02-26T10:50:43;6.40;99.90
52555;DHT22;38455;52.710;6.502;2024-02-26T10:53:15;6.40;99.90
52555;DHT22;38455;52.710;6.502;2024-02-26T10:55:44;6.40;99.90
52555;DHT22;38455;52.710;6.502;2024-02-26T10:58:13;6.40;99.90
52555;DHT22;38455;52.710;6.502;2024-02-26T11:00:40;6.40;99.90
52555;DHT22;38455;52.710;6.502;2024-02-26T11:03:06;6.40;99.90
52555;DHT22;38455;52.710;6.502;2024-02-26T11:05:35;6.40;99.90
52555;DHT22;38455;52.710;6.502;2024-02-26T11:08:02;6.40;99.90
52555;DHT22;38455;52.710;6.502;2024-02-26T11:10:29;6.40;99.90
52555;DHT22;38455;52.710;6.502;2024-02-26T11:12:56;6.30;99.90
52555;DHT22;38455;52.710;6.502;2024-02-26T11:15:23;6.40;99.90
52555;DHT22;38455;52.710;6.502;2024-02-26T11:17:52;6.40;99.90
52555;DHT22;38455;52.710;6.502;2024-02-26T11:20:19;6.40;99.90
52555;DHT22;38455;52.710;6.502;2024-02-26T11:22:45;6.40;99.90
52555;DHT22;38455;52.710;6.502;2024-02-26T11:25:11;6.40;99.90
52555;DHT22;38455;52.710;6.502;2024-02-26T11:27:48;6.40;99.90
52555;DHT22;38455;52.710;6.502;2024-02-26T11:30:15;6.40;99.90
52555;DHT22;38455;52.710;6.502;2024-02-26T11:32:47;6.40;99.90
52555;DHT22;38455;52.710;6.502;2024-02-26T11:35:13;6.40;99.90
52555;DHT22;38455;52.710;6.502;2024-02-26T11:37:41;6.50;99.90
52555;DHT22;38455;52.710;6.502;2024-02-26T11:40:11;6.40;99.90
52555;DHT22;38455;52.710;6.502;2024-02-26T11:42:44;6.40;99.90
52555;DHT22;38455;52.710;6.502;2024-02-26T11:48:04;6.40;99.90
52555;DHT22;38455;52.710;6.502;2024-02-26T11:50:35;6.40;99.90
52555;DHT22;38455;52.710;6.502;2024-02-26T11:53:23;6.50;99.90
52555;DHT22;38455;52.710;6.502;2024-02-26T11:56:24;6.50;99.90
52555;DHT22;38455;52.710;6.502;2024-02-26T11:59:09;6.60;99.90
52555;DHT22;38455;52.710;6.502;2024-02-26T12:01:41;6.60;99.90
52555;DHT22;38455;52.710;6.502;2024-02-26T12:04:12;6.60;99.90
52555;DHT22;38455;52.710;6.502;2024-02-26T12:06:44;6.60;99.90
52555;DHT22;38455;52.710;6.502;2024-02-26T12:09:11;6.60;99.90
52555;DHT22;38455;52.710;6.502;2024-02-26T12:11:39;6.60;99.90
52555;DHT22;38455;52.710;6.502;2024-02-26T12:14:07;6.70;99.90
52555;DHT22;38455;52.710;6.502;2024-02-26T12:16:36;6.70;99.90
52555;DHT22;38455;52.710;6.502;2024-02-26T12:19:06;6.70;99.90
52555;DHT22;38455;52.710;6.502;2024-02-26T12:21:37;6.60;99.90
52555;DHT22;38455;52.710;6.502;2024-02-26T12:24:13;6.60;99.90
52555;DHT22;38455;52.710;6.502;2024-02-26T12:26:41;6.60;99.90
52555;DHT22;38455;52.710;6.502;2024-02-26T12:29:07;6.70;99.90
52555;DHT22;38455;52.710;6.502;2024-02-26T12:31:33;6.60;99.90
52555;DHT22;38455;52.710;6.502;2024-02-26T12:34:00;6.60;99.90
52555;DHT22;38455;52.710;6.502;2024-02-26T12:36:26;6.60;99.90
52555;DHT22;38455;52.710;6.502;2024-02-26T12:38:52;6.60;99.90
52555;DHT22;38455;52.710;6.502;2024-02-26T12:41:18;6.60;99.90
52555;DHT22;38455;52.710;6.502;2024-02-26T12:43:45;6.60;99.90
52555;DHT22;38455;52.710;6.502;2024-02-26T12:46:11;6.70;99.90
52555;DHT22;38455;52.710;6.502;2024-02-26T12:48:38;6.60;99.90
52555;DHT22;38455;52.710;6.502;2024-02-26T12:51:05;6.60;99.90
52555;DHT22;38455;52.710;6.502;2024-02-26T12:53:31;6.70;99.90
52555;DHT22;38455;52.710;6.502;2024-02-26T12:55:59;6.60;99.90
52555;DHT22;38455;52.710;6.502;2024-02-26T12:58:24;6.70;99.90
52555;DHT22;38455;52.710;6.502;2024-02-26T13:00:51;6.70;99.90
52555;DHT22;38455;52.710;6.502;2024-02-26T13:03:18;6.70;99.90
52555;DHT22;38455;52.710;6.502;2024-02-26T13:05:44;6.70;99.90
52555;DHT22;38455;52.710;6.502;2024-02-26T13:08:16;6.70;99.90
52555;DHT22;38455;52.710;6.502;2024-02-26T13:10:42;6.70;99.90
52555;DHT22;38455;52.710;6.502;2024-02-26T13:13:08;6.70;99.90
52555;DHT22;38455;52.710;6.502;2024-02-26T13:15:34;6.80;99.90
52555;DHT22;38455;52.710;6.502;2024-02-26T13:18:09;6.80;99.90
52555;DHT22;38455;52.710;6.502;2024-02-26T13:20:35;6.80;99.90
52555;DHT22;38455;52.710;6.502;2024-02-26T13:23:11;6.80;99.90
52555;DHT22;38455;52.710;6.502;2024-02-26T13:25:37;6.80;99.90
52555;DHT22;38455;52.710;6.502;2024-02-26T13:28:12;6.80;99.90
52555;DHT22;38455;52.710;6.502;2024-02-26T13:30:39;6.80;99.90
52555;DHT22;38455;52.710;6.502;2024-02-26T13:33:12;6.90;99.90
52555;DHT22;38455;52.710;6.502;2024-02-26T13:35:38;6.90;99.90
52555;DHT22;38455;52.710;6.502;2024-02-26T13:38:05;6.90;99.90
52555;DHT22;38455;52.710;6.502;2024-02-26T13:40:32;6.90;99.90
52555;DHT22;38455;52.710;6.502;2024-02-26T13:42:58;6.90;99.90
52555;DHT22;38455;52.710;6.502;2024-02-26T13:45:23;6.90;99.90
52555;DHT22;38455;52.710;6.502;2024-02-26T13:47:49;6.90;99.90
52555;DHT22;38455;52.710;6.502;2024-02-26T13:50:15;7.00;99.90
52555;DHT22;38455;52.710;6.502;2024-02-26T13:52:40;7.00;99.90
52555;DHT22;38455;52.710;6.502;2024-02-26T13:55:06;7.00;99.90
52555;DHT22;38455;52.710;6.502;2024-02-26T13:57:33;7.00;99.90
52555;DHT22;38455;52.710;6.502;2024-02-26T13:59:58;7.00;99.90
52555;DHT22;38455;52.710;6.502;2024-02-26T14:02:24;7.00;99.90
52555;DHT22;38455;52.710;6.502;2024-02-26T14:04:50;7.00;99.90
52555;DHT22;38455;52.710;6.502;2024-02-26T14:07:15;7.00;99.90
52555;DHT22;38455;52.710;6.502;2024-02-26T14:09:44;7.00;99.90
52555;DHT22;38455;52.710;6.502;2024-02-26T14:12:11;7.10;99.90
52555;DHT22;38455;52.710;6.502;2024-02-26T14:14:36;7.00;99.90
52555;DHT22;38455;52.710;6.502;2024-02-26T14:17:04;7.00;99.90
52555;DHT22;38455;52.710;6.502;2024-02-26T14:19:30;7.10;99.90
52555;DHT22;38455;52.710;6.502;2024-02-26T14:21:56;7.10;99.90
52555;DHT22;38455;52.710;6.502;2024-02-26T14:24:21;7.00;99.90
52555;DHT22;38455;52.710;6.502;2024-02-26T14:26:47;7.00;99.90
52555;DHT22;38455;52.710;6.502;2024-02-26T14:29:13;7.00;99.90
52555;DHT22;38455;52.710;6.502;2024-02-26T14:31:39;6.90;99.90
52555;DHT22;38455;52.710;6.502;2024-02-26T14:34:05;6.90;99.90
52555;DHT22;38455;52.710;6.502;2024-02-26T14:36:31;7.00;99.90
52555;DHT22;38455;52.710;6.502;2024-02-26T14:38:56;6.90;99.90
52555;DHT22;38455;52.710;6.502;2024-02-26T14:41:22;6.90;99.90
52555;DHT22;38455;52.710;6.502;2024-02-26T14:43:48;6.80;99.90
52555;DHT22;38455;52.710;6.502;2024-02-26T14:46:13;6.80;99.90
52555;DHT22;38455;52.710;6.502;2024-02-26T14:48:39;6.80;99.90
52555;DHT22;38455;52.710;6.502;2024-02-26T14:51:05;6.80;99.90
52555;DHT22;38455;52.710;6.502;2024-02-26T14:53:32;6.80;99.90
52555;DHT22;38455;52.710;6.502;2024-02-26T14:55:57;6.80;99.90
52555;DHT22;38455;52.710;6.502;2024-02-26T14:58:23;6.80;99.90
52555;DHT22;38455;52.710;6.502;2024-02-26T15:00:49;6.70;99.90
52555;DHT22;38455;52.710;6.502;2024-02-26T15:03:15;6.70;99.90
52555;DHT22;38455;52.710;6.502;2024-02-26T15:05:42;6.70;99.90
52555;DHT22;38455;52.710;6.502;2024-02-26T15:08:07;6.60;99.90
52555;DHT22;38455;52.710;6.502;2024-02-26T15:10:40;6.70;99.90
52555;DHT22;38455;52.710;6.502;2024-02-26T15:13:12;6.60;99.90
52555;DHT22;38455;52.710;6.502;2024-02-26T15:15:38;6.50;99.90
52555;DHT22;38455;52.710;6.502;2024-02-26T15:18:04;6.50;99.90
52555;DHT22;38455;52.710;6.502;2024-02-26T15:20:30;6.50;99.90
52555;DHT22;38455;52.710;6.502;2024-02-26T15:22:56;6.50;99.90
52555;DHT22;38455;52.710;6.502;2024-02-26T15:25:21;6.50;99.90
52555;DHT22;38455;52.710;6.502;2024-02-26T15:27:47;6.50;99.90
52555;DHT22;38455;52.710;6.502;2024-02-26T15:30:13;6.50;99.90
52555;DHT22;38455;52.710;6.502;2024-02-26T15:32:38;6.50;99.90
52555;DHT22;38455;52.710;6.502;2024-02-26T15:35:04;6.50;99.90
52555;DHT22;38455;52.710;6.502;2024-02-26T15:37:31;6.50;99.90
52555;DHT22;38455;52.710;6.502;2024-02-26T15:39:57;6.40;99.90
52555;DHT22;38455;52.710;6.502;2024-02-26T15:42:23;6.40;99.90
52555;DHT22;38455;52.710;6.502;2024-02-26T15:44:50;6.40;99.90